createdAt,value
2019-03-03T00:08:25.943Z,2.96
2019-03-03T00:23:28.535Z,2.79
2019-03-03T00:38:35.714Z,2.64
2019-03-03T00:53:51.839Z,2.62
2019-03-03T01:09:01.825Z,2.58
2019-03-03T01:24:09.618Z,2.43
2019-03-03T01:39:13.492Z,2.53
2019-03-03T01:54:16.035Z,2.54
2019-03-03T02:09:18.842Z,2.21
2019-03-03T02:24:22.024Z,2.00
2019-03-03T02:39:24.709Z,2.27
2019-03-03T02:54:27.266Z,2.66
2019-03-03T03:09:32.709Z,2.66
2019-03-03T03:24:42.674Z,2.67
2019-03-03T03:55:21.923Z,3.34
2019-03-03T04:10:29.088Z,3.26
2019-03-03T04:25:51.333Z,3.38
2019-03-03T04:57:20.295Z,3.51
2019-03-03T05:29:02.977Z,3.64
2019-03-03T05:44:35.935Z,3.73
2019-03-03T06:00:08.870Z,3.83
2019-03-03T06:15:42.282Z,4.10
2019-03-03T06:31:15.746Z,4.34
2019-03-03T06:46:48.579Z,4.44
2019-03-03T07:02:21.834Z,4.54
2019-03-03T07:17:55.301Z,4.68
2019-03-03T07:33:30.199Z,5.00
2019-03-03T07:49:03.510Z,5.03
2019-03-03T08:04:36.392Z,5.39
2019-03-03T08:20:09.451Z,5.63
2019-03-03T08:35:44.595Z,5.92
2019-03-03T08:51:25.235Z,6.34
2019-03-03T09:23:23.921Z,7.50
2019-03-03T09:39:00.254Z,8.02
2019-03-03T09:54:39.387Z,9.19
2019-03-03T10:10:18.554Z,10.05
2019-03-03T10:25:57.303Z,10.54
2019-03-03T10:41:33.161Z,10.36
2019-03-03T11:13:31.740Z,7.60
2019-03-03T11:29:08.912Z,7.35
2019-03-03T11:44:45.990Z,7.37
2019-03-03T12:16:49.565Z,7.70
2019-03-03T12:32:29.601Z,8.16
2019-03-03T12:48:06.799Z,8.59
2019-03-03T13:36:07.656Z,9.52
2019-03-03T13:51:41.521Z,9.55
2019-03-03T14:07:14.367Z,9.05
2019-03-03T14:22:47.319Z,8.46
2019-03-03T14:38:20.127Z,8.23
2019-03-03T14:53:52.943Z,7.70
2019-03-03T15:09:28.271Z,7.15
2019-03-03T15:25:01.742Z,7.05
2019-03-03T15:40:38.080Z,6.71
2019-03-03T15:56:11.202Z,6.43
2019-03-03T16:11:44.393Z,6.14
2019-03-03T16:27:17.618Z,5.90
2019-03-03T16:42:50.812Z,5.79
2019-03-03T16:58:23.776Z,5.80
2019-03-03T17:13:56.714Z,5.66
2019-03-03T17:29:29.602Z,5.63
2019-03-03T17:45:03.076Z,5.62
2019-03-03T18:00:55.438Z,5.67
2019-03-03T18:16:28.255Z,5.71
2019-03-03T18:32:01.439Z,5.67
2019-03-03T18:47:34.789Z,5.53
2019-03-03T19:03:07.859Z,5.29
2019-03-03T19:18:40.800Z,4.96
2019-03-03T19:34:15.097Z,4.66
2019-03-03T19:49:50.343Z,4.51
2019-03-03T20:05:23.182Z,4.42
2019-03-03T20:20:56.211Z,4.80
2019-03-03T20:36:29.157Z,4.84
2019-03-03T20:52:03.077Z,5.01
2019-03-03T21:07:36.101Z,5.23
2019-03-03T21:23:09.701Z,5.17
2019-03-03T21:38:42.807Z,5.06
2019-03-03T21:54:16.031Z,5.11
2019-03-03T22:09:49.672Z,4.76
2019-03-03T22:25:24.689Z,4.63
2019-03-03T22:40:57.622Z,4.77
2019-03-03T22:56:30.788Z,4.76
2019-03-03T23:12:31.041Z,4.73
2019-03-03T23:28:04.486Z,4.77
2019-03-03T23:43:37.564Z,4.64
2019-03-03T23:59:10.883Z,4.60
